Pagina principale
METAR-TAF:

METAR-TAF

Aeroporti :

Mthatha, Sudafrica

latitudine: 31-32-47S, longitudine: 028-40-31E, altezza: 740 m

Osservazione

Il bollettino è stato emesso 54 minuti fa, alle 03:00 UTC
Vento 3 kt da est/sud-est
Temperature 16°C
Umidità 94%
Pressione 1018 hPa
Visibilità 10 km o più
Cielo coperto ad un'altezza di 1500 ft

METAR: FAUT 300300Z 12003KT 9999 OVC015 16/15 Q1018

Ora: 05:54 (03:54 UTC)

Previsione

Il bollettino è stato emesso 23 ore e 54 minuti fa, alle 04:00 UTC
Previsione valida dal 30 alle 04 UTC al 30 alle 15 UTC
Vento 3 kt da direzioni variabili
Visibilità 10 km o più
Cielo coperto ad un'altezza di 1500 ft
Evoluzione graduale
dal 30 alle 07 UTC al 30 alle 09 UTC
Vento 5 kt da nord-est

TAF: FAUT 300400Z 3004/3015 VRB03KT 9999 OVC015 TX27/3012Z TN18/3006Z BECMG 3007/3009 04005KT

Osservazioni e previsioni meteorologiche di più di 4000 aeroporti (messaggi METAR e TAF).

Le stazioni disponibili sono rappresentate dai dischi gialli e rossi sulla carta.

Puntare il mouse per vedere il nome della stazione.

Clicca sopra per visualizzare le osservazioni e previsioni meteorologiche.

Per cambiare la mappa : fare clic sui pulsanti verdi con una croce nera per ingrandire, il pulsante verde con un trattino per diminuire, o sulla freccia verde per le mappe adiacenti.


METAR-TAF: